sensor_id;sensor_type;location;lat;lon;timestamp;pressure;altitude;pressure_sealevel;temperature;humidity
8581;BME280;4328;48.622;9.230;2022-10-16T00:00:31;97884.81;;;15.46;100.00
8581;BME280;4328;48.622;9.230;2022-10-16T00:02:58;97878.38;;;15.41;100.00
8581;BME280;4328;48.622;9.230;2022-10-16T00:05:24;97876.72;;;15.40;100.00
8581;BME280;4328;48.622;9.230;2022-10-16T00:07:51;97881.16;;;15.34;100.00
8581;BME280;4328;48.622;9.230;2022-10-16T00:10:18;97879.25;;;15.35;100.00
8581;BME280;4328;48.622;9.230;2022-10-16T00:12:45;97879.50;;;15.33;100.00
8581;BME280;4328;48.622;9.230;2022-10-16T00:15:11;97884.56;;;15.30;100.00
8581;BME280;4328;48.622;9.230;2022-10-16T00:17:38;97883.00;;;15.15;100.00
8581;BME280;4328;48.622;9.230;2022-10-16T00:20:05;97889.53;;;15.14;100.00
8581;BME280;4328;48.622;9.230;2022-10-16T00:22:31;97891.63;;;15.12;100.00
8581;BME280;4328;48.622;9.230;2022-10-16T00:24:58;97900.28;;;15.09;100.00
8581;BME280;4328;48.622;9.230;2022-10-16T00:27:26;97888.53;;;15.09;100.00
8581;BME280;4328;48.622;9.230;2022-10-16T00:29:52;97905.97;;;15.08;100.00
8581;BME280;4328;48.622;9.230;2022-10-16T00:32:19;97906.63;;;15.03;100.00
8581;BME280;4328;48.622;9.230;2022-10-16T00:34:46;97904.53;;;14.99;100.00
8581;BME280;4328;48.622;9.230;2022-10-16T00:37:12;97901.00;;;14.98;100.00
8581;BME280;4328;48.622;9.230;2022-10-16T00:39:39;97910.25;;;14.97;100.00
8581;BME280;4328;48.622;9.230;2022-10-16T00:42:05;97898.31;;;14.92;100.00
8581;BME280;4328;48.622;9.230;2022-10-16T00:44:43;97903.75;;;14.92;100.00
8581;BME280;4328;48.622;9.230;2022-10-16T00:47:10;97894.13;;;14.89;100.00
8581;BME280;4328;48.622;9.230;2022-10-16T00:49:37;97900.88;;;14.87;100.00
8581;BME280;4328;48.622;9.230;2022-10-16T00:52:04;97900.69;;;14.81;100.00
8581;BME280;4328;48.622;9.230;2022-10-16T00:54:31;97902.56;;;14.81;100.00
8581;BME280;4328;48.622;9.230;2022-10-16T00:57:00;97894.19;;;14.76;100.00
8581;BME280;4328;48.622;9.230;2022-10-16T00:59:28;97898.00;;;14.75;100.00
8581;BME280;4328;48.622;9.230;2022-10-16T01:01:56;97901.53;;;14.75;100.00
8581;BME280;4328;48.622;9.230;2022-10-16T01:04:23;97899.66;;;14.76;100.00
8581;BME280;4328;48.622;9.230;2022-10-16T01:06:51;97898.59;;;14.77;100.00
8581;BME280;4328;48.622;9.230;2022-10-16T01:09:23;97908.47;;;14.78;100.00
8581;BME280;4328;48.622;9.230;2022-10-16T01:11:55;97913.09;;;14.77;100.00
8581;BME280;4328;48.622;9.230;2022-10-16T01:14:26;97911.66;;;14.75;100.00
8581;BME280;4328;48.622;9.230;2022-10-16T01:17:00;97920.06;;;14.73;100.00
8581;BME280;4328;48.622;9.230;2022-10-16T01:19:44;97921.31;;;14.71;100.00
8581;BME280;4328;48.622;9.230;2022-10-16T01:22:16;97928.38;;;14.85;100.00
8581;BME280;4328;48.622;9.230;2022-10-16T01:24:43;97920.16;;;14.92;100.00
8581;BME280;4328;48.622;9.230;2022-10-16T01:27:12;97920.97;;;14.92;100.00
8581;BME280;4328;48.622;9.230;2022-10-16T01:29:42;97927.69;;;14.96;100.00
8581;BME280;4328;48.622;9.230;2022-10-16T01:32:24;97926.78;;;15.02;100.00
8581;BME280;4328;48.622;9.230;2022-10-16T01:34:56;97909.78;;;15.00;99.81
8581;BME280;4328;48.622;9.230;2022-10-16T01:37:27;97918.44;;;14.97;99.89
8581;BME280;4328;48.622;9.230;2022-10-16T01:39:56;97912.34;;;14.95;100.00
8581;BME280;4328;48.622;9.230;2022-10-16T01:42:26;97910.47;;;14.96;99.93
8581;BME280;4328;48.622;9.230;2022-10-16T01:44:55;97913.41;;;14.94;99.52
8581;BME280;4328;48.622;9.230;2022-10-16T01:47:22;97915.09;;;14.95;99.25
8581;BME280;4328;48.622;9.230;2022-10-16T01:49:50;97914.03;;;14.96;99.52
8581;BME280;4328;48.622;9.230;2022-10-16T01:52:19;97909.19;;;14.98;99.21
8581;BME280;4328;48.622;9.230;2022-10-16T01:54:48;97907.69;;;15.02;98.93
8581;BME280;4328;48.622;9.230;2022-10-16T01:57:16;97909.13;;;15.05;98.87
8581;BME280;4328;48.622;9.230;2022-10-16T01:59:46;97909.13;;;15.05;99.22
8581;BME280;4328;48.622;9.230;2022-10-16T02:02:13;97910.81;;;15.06;98.98
8581;BME280;4328;48.622;9.230;2022-10-16T02:04:42;97897.56;;;15.09;98.72
8581;BME280;4328;48.622;9.230;2022-10-16T02:07:10;97896.03;;;15.13;97.97
8581;BME280;4328;48.622;9.230;2022-10-16T02:09:36;97899.00;;;15.12;97.66
8581;BME280;4328;48.622;9.230;2022-10-16T02:12:06;97896.03;;;15.13;97.73
8581;BME280;4328;48.622;9.230;2022-10-16T02:14:34;97895.19;;;15.13;97.78
8581;BME280;4328;48.622;9.230;2022-10-16T02:17:10;97892.31;;;15.08;97.68
8581;BME280;4328;48.622;9.230;2022-10-16T02:19:37;97900.88;;;15.11;97.72
8581;BME280;4328;48.622;9.230;2022-10-16T02:22:04;97904.84;;;15.15;97.60
8581;BME280;4328;48.622;9.230;2022-10-16T02:24:33;97903.81;;;15.16;97.36
8581;BME280;4328;48.622;9.230;2022-10-16T02:27:03;97905.69;;;15.16;97.00
8581;BME280;4328;48.622;9.230;2022-10-16T02:29:33;97912.84;;;15.17;97.23
8581;BME280;4328;48.622;9.230;2022-10-16T02:32:04;97910.31;;;15.15;97.15
8581;BME280;4328;48.622;9.230;2022-10-16T02:34:33;97900.63;;;15.20;97.25
8581;BME280;4328;48.622;9.230;2022-10-16T02:37:02;97902.75;;;15.17;97.12
8581;BME280;4328;48.622;9.230;2022-10-16T02:39:30;97892.66;;;15.18;97.46
8581;BME280;4328;48.622;9.230;2022-10-16T02:41:57;97882.16;;;15.15;97.89
8581;BME280;4328;48.622;9.230;2022-10-16T02:44:23;97898.97;;;15.18;98.15
8581;BME280;4328;48.622;9.230;2022-10-16T02:46:50;97900.00;;;15.17;97.96
8581;BME280;4328;48.622;9.230;2022-10-16T02:49:16;97894.84;;;15.09;98.50
8581;BME280;4328;48.622;9.230;2022-10-16T02:51:45;97904.44;;;15.12;98.37
8581;BME280;4328;48.622;9.230;2022-10-16T02:54:11;97909.34;;;15.03;98.32
8581;BME280;4328;48.622;9.230;2022-10-16T02:56:38;97915.44;;;15.05;98.93
8581;BME280;4328;48.622;9.230;2022-10-16T02:59:04;97908.28;;;15.04;98.28
8581;BME280;4328;48.622;9.230;2022-10-16T03:01:31;97924.69;;;15.04;98.46
8581;BME280;4328;48.622;9.230;2022-10-16T03:03:57;97905.38;;;14.99;98.61
8581;BME280;4328;48.622;9.230;2022-10-16T03:06:24;97912.50;;;15.00;98.53
8581;BME280;4328;48.622;9.230;2022-10-16T03:08:51;97908.56;;;14.96;98.91
8581;BME280;4328;48.622;9.230;2022-10-16T03:11:18;97914.03;;;14.96;98.96
8581;BME280;4328;48.622;9.230;2022-10-16T03:13:44;97915.53;;;14.92;99.21
8581;BME280;4328;48.622;9.230;2022-10-16T03:16:11;97916.78;;;14.90;99.04
8581;BME280;4328;48.622;9.230;2022-10-16T03:18:37;97913.44;;;14.88;99.67
8581;BME280;4328;48.622;9.230;2022-10-16T03:21:03;97909.28;;;14.85;99.92
8581;BME280;4328;48.622;9.230;2022-10-16T03:23:30;97910.13;;;14.86;100.00
8581;BME280;4328;48.622;9.230;2022-10-16T03:25:58;97904.19;;;14.89;100.00
8581;BME280;4328;48.622;9.230;2022-10-16T03:28:24;97900.41;;;14.90;100.00
8581;BME280;4328;48.622;9.230;2022-10-16T03:30:50;97888.03;;;14.87;100.00
8581;BME280;4328;48.622;9.230;2022-10-16T03:33:17;97905.03;;;14.89;100.00
8581;BME280;4328;48.622;9.230;2022-10-16T03:35:50;97907.56;;;14.91;99.75
8581;BME280;4328;48.622;9.230;2022-10-16T03:38:16;97913.22;;;14.89;99.16
8581;BME280;4328;48.622;9.230;2022-10-16T03:40:43;97913.06;;;14.84;99.23
8581;BME280;4328;48.622;9.230;2022-10-16T03:43:10;97908.88;;;14.81;99.49
8581;BME280;4328;48.622;9.230;2022-10-16T03:45:37;97915.16;;;14.82;99.72
8581;BME280;4328;48.622;9.230;2022-10-16T03:48:03;97915.16;;;14.82;99.93
8581;BME280;4328;48.622;9.230;2022-10-16T03:50:30;97920.63;;;14.82;99.79
8581;BME280;4328;48.622;9.230;2022-10-16T03:52:56;97915.78;;;14.84;99.90
8581;BME280;4328;48.622;9.230;2022-10-16T03:55:23;97921.88;;;14.86;99.88
8581;BME280;4328;48.622;9.230;2022-10-16T03:57:49;97924.81;;;14.85;99.66
8581;BME280;4328;48.622;9.230;2022-10-16T04:00:17;97936.56;;;14.85;99.70
8581;BME280;4328;48.622;9.230;2022-10-16T04:02:44;97931.34;;;14.84;99.60
8581;BME280;4328;48.622;9.230;2022-10-16T04:05:13;97930.72;;;14.81;99.81
8581;BME280;4328;48.622;9.230;2022-10-16T04:07:40;97928.19;;;14.80;99.87
8581;BME280;4328;48.622;9.230;2022-10-16T04:10:06;97935.34;;;14.81;99.87
8581;BME280;4328;48.622;9.230;2022-10-16T04:12:33;97937.44;;;14.79;100.00
8581;BME280;4328;48.622;9.230;2022-10-16T04:14:59;97938.94;;;14.75;100.00
8581;BME280;4328;48.622;9.230;2022-10-16T04:17:27;97928.63;;;14.77;100.00
8581;BME280;4328;48.622;9.230;2022-10-16T04:19:54;97934.97;;;14.71;100.00
8581;BME280;4328;48.622;9.230;2022-10-16T04:22:20;97934.78;;;14.66;100.00
8581;BME280;4328;48.622;9.230;2022-10-16T04:24:46;97939.81;;;14.69;100.00
8581;BME280;4328;48.622;9.230;2022-10-16T04:27:16;97933.28;;;14.70;100.00
8581;BME280;4328;48.622;9.230;2022-10-16T04:29:42;97933.28;;;14.70;100.00
8581;BME280;4328;48.622;9.230;2022-10-16T04:32:09;97937.50;;;14.72;100.00
8581;BME280;4328;48.622;9.230;2022-10-16T04:34:38;97932.88;;;14.73;100.00
8581;BME280;4328;48.622;9.230;2022-10-16T04:37:05;97934.97;;;14.71;100.00
8581;BME280;4328;48.622;9.230;2022-10-16T04:39:32;97935.81;;;14.71;100.00
8581;BME280;4328;48.622;9.230;2022-10-16T04:41:58;97931.81;;;14.74;100.00
8581;BME280;4328;48.622;9.230;2022-10-16T04:44:24;97932.41;;;14.76;100.00
8581;BME280;4328;48.622;9.230;2022-10-16T04:46:51;97932.66;;;14.74;99.81
8581;BME280;4328;48.622;9.230;2022-10-16T04:49:17;97935.75;;;14.78;99.81
8581;BME280;4328;48.622;9.230;2022-10-16T04:51:45;97943.09;;;14.77;99.59
8581;BME280;4328;48.622;9.230;2022-10-16T04:54:11;97942.28;;;14.77;99.05
8581;BME280;4328;48.622;9.230;2022-10-16T04:56:38;97946.69;;;14.78;99.11
8581;BME280;4328;48.622;9.230;2022-10-16T04:59:11;97945.47;;;14.74;99.44
8581;BME280;4328;48.622;9.230;2022-10-16T05:01:38;97943.56;;;14.74;99.67
8581;BME280;4328;48.622;9.230;2022-10-16T05:04:04;97950.47;;;14.77;99.50
8581;BME280;4328;48.622;9.230;2022-10-16T05:06:31;97951.31;;;14.77;99.59
8581;BME280;4328;48.622;9.230;2022-10-16T05:08:59;97955.69;;;14.78;99.87
8581;BME280;4328;48.622;9.230;2022-10-16T05:11:25;97963.06;;;14.78;99.76
8581;BME280;4328;48.622;9.230;2022-10-16T05:13:52;97967.88;;;14.76;99.64
8581;BME280;4328;48.622;9.230;2022-10-16T05:16:18;97970.03;;;14.74;99.14
8581;BME280;4328;48.622;9.230;2022-10-16T05:18:44;97966.03;;;14.70;98.88
8581;BME280;4328;48.622;9.230;2022-10-16T05:21:11;97966.69;;;14.65;99.13
8581;BME280;4328;48.622;9.230;2022-10-16T05:23:37;97963.16;;;14.58;99.04
8581;BME280;4328;48.622;9.230;2022-10-16T05:26:05;97964.84;;;14.53;99.14
8581;BME280;4328;48.622;9.230;2022-10-16T05:28:32;97961.13;;;14.47;99.53
8581;BME280;4328;48.622;9.230;2022-10-16T05:30:58;97960.69;;;14.43;99.90
8581;BME280;4328;48.622;9.230;2022-10-16T05:33:25;97961.13;;;14.40;99.84
8581;BME280;4328;48.622;9.230;2022-10-16T05:35:52;97970.56;;;14.38;100.00
8581;BME280;4328;48.622;9.230;2022-10-16T05:38:18;97962.81;;;14.35;100.00
8581;BME280;4328;48.622;9.230;2022-10-16T05:40:50;97973.72;;;14.28;100.00
8581;BME280;4328;48.622;9.230;2022-10-16T05:43:18;97974.38;;;14.17;100.00
8581;BME280;4328;48.622;9.230;2022-10-16T05:45:44;97978.41;;;14.15;100.00
8581;BME280;4328;48.622;9.230;2022-10-16T05:48:10;97979.22;;;14.08;100.00
8581;BME280;4328;48.622;9.230;2022-10-16T05:50:37;97981.13;;;14.08;100.00
8581;BME280;4328;48.622;9.230;2022-10-16T05:53:03;97991.59;;;14.04;100.00
8581;BME280;4328;48.622;9.230;2022-10-16T05:55:30;97985.34;;;14.04;100.00
8581;BME280;4328;48.622;9.230;2022-10-16T05:57:56;97984.69;;;14.08;100.00
8581;BME280;4328;48.622;9.230;2022-10-16T06:00:24;97984.47;;;14.10;100.00
8581;BME280;4328;48.622;9.230;2022-10-16T06:02:50;97986.34;;;14.16;100.00
8581;BME280;4328;48.622;9.230;2022-10-16T06:05:17;97985.06;;;14.25;100.00
8581;BME280;4328;48.622;9.230;2022-10-16T06:07:43;97996.38;;;14.35;100.00
8581;BME280;4328;48.622;9.230;2022-10-16T06:10:09;97996.78;;;14.45;100.00
8581;BME280;4328;48.622;9.230;2022-10-16T06:12:36;98003.03;;;14.53;99.76
8581;BME280;4328;48.622;9.230;2022-10-16T06:15:03;98005.13;;;14.57;99.29
8581;BME280;4328;48.622;9.230;2022-10-16T06:17:30;98009.28;;;14.66;98.63
8581;BME280;4328;48.622;9.230;2022-10-16T06:19:57;97999.00;;;14.75;98.17
8581;BME280;4328;48.622;9.230;2022-10-16T06:22:23;98006.50;;;14.86;97.53
8581;BME280;4328;48.622;9.230;2022-10-16T06:24:50;98016.06;;;15.02;97.08
8581;BME280;4328;48.622;9.230;2022-10-16T06:27:16;98010.31;;;15.16;95.97
8581;BME280;4328;48.622;9.230;2022-10-16T06:29:42;98013.78;;;15.30;94.38
8581;BME280;4328;48.622;9.230;2022-10-16T06:32:10;98018.06;;;15.51;94.20
8581;BME280;4328;48.622;9.230;2022-10-16T06:34:37;98023.53;;;15.51;91.67
8581;BME280;4328;48.622;9.230;2022-10-16T06:37:05;98023.97;;;15.48;91.62
8581;BME280;4328;48.622;9.230;2022-10-16T06:39:31;98014.72;;;15.49;91.95
8581;BME280;4328;48.622;9.230;2022-10-16T06:41:58;98020.72;;;15.64;92.10
8581;BME280;4328;48.622;9.230;2022-10-16T06:44:24;98014.22;;;15.90;91.50
8581;BME280;4328;48.622;9.230;2022-10-16T06:46:50;98026.41;;;16.12;90.17
8581;BME280;4328;48.622;9.230;2022-10-16T06:49:17;98033.13;;;16.35;88.94
8581;BME280;4328;48.622;9.230;2022-10-16T06:51:48;98024.91;;;16.53;87.58
8581;BME280;4328;48.622;9.230;2022-10-16T06:54:15;98036.44;;;16.80;86.29
8581;BME280;4328;48.622;9.230;2022-10-16T06:56:41;98029.84;;;16.87;85.73
8581;BME280;4328;48.622;9.230;2022-10-16T06:59:08;98030.34;;;16.96;85.55
8581;BME280;4328;48.622;9.230;2022-10-16T07:01:34;98039.94;;;16.87;85.15
8581;BME280;4328;48.622;9.230;2022-10-16T07:04:00;98044.75;;;16.73;85.71
8581;BME280;4328;48.622;9.230;2022-10-16T07:06:29;98040.06;;;16.55;86.35
8581;BME280;4328;48.622;9.230;2022-10-16T07:08:57;98060.28;;;16.54;87.05
8581;BME280;4328;48.622;9.230;2022-10-16T07:11:24;98050.25;;;16.48;87.70
8581;BME280;4328;48.622;9.230;2022-10-16T07:13:50;98056.47;;;16.55;88.46
8581;BME280;4328;48.622;9.230;2022-10-16T07:16:18;98066.09;;;16.65;87.38
8581;BME280;4328;48.622;9.230;2022-10-16T07:18:44;98063.53;;;16.70;87.10
8581;BME280;4328;48.622;9.230;2022-10-16T07:21:12;98065.28;;;16.82;87.38
8581;BME280;4328;48.622;9.230;2022-10-16T07:23:38;98073.16;;;16.90;86.62
8581;BME280;4328;48.622;9.230;2022-10-16T07:26:06;98072.88;;;16.99;86.17
8581;BME280;4328;48.622;9.230;2022-10-16T07:28:33;98080.56;;;17.08;86.03
8581;BME280;4328;48.622;9.230;2022-10-16T07:31:00;98088.28;;;17.11;85.78
8581;BME280;4328;48.622;9.230;2022-10-16T07:33:27;98090.22;;;17.11;85.65
8581;BME280;4328;48.622;9.230;2022-10-16T07:35:54;98097.34;;;17.12;85.79
8581;BME280;4328;48.622;9.230;2022-10-16T07:38:20;98101.31;;;17.16;86.10
8581;BME280;4328;48.622;9.230;2022-10-16T07:40:47;98104.44;;;17.19;86.14
8581;BME280;4328;48.622;9.230;2022-10-16T07:43:15;98106.94;;;17.21;86.28
8581;BME280;4328;48.622;9.230;2022-10-16T07:45:50;98104.88;;;17.16;86.40
8581;BME280;4328;48.622;9.230;2022-10-16T07:48:17;98100.47;;;17.15;86.51
8581;BME280;4328;48.622;9.230;2022-10-16T07:50:44;98111.28;;;17.10;86.78
8581;BME280;4328;48.622;9.230;2022-10-16T07:53:10;98125.56;;;17.12;87.52
8581;BME280;4328;48.622;9.230;2022-10-16T07:55:37;98014.97;;;16.58;87.39
8581;BME280;4328;48.622;9.230;2022-10-16T07:58:04;98124.88;;;17.35;86.66
8581;BME280;4328;48.622;9.230;2022-10-16T08:00:32;98108.59;;;17.40;85.94
8581;BME280;4328;48.622;9.230;2022-10-16T08:02:58;98117.00;;;17.57;85.32
8581;BME280;4328;48.622;9.230;2022-10-16T08:05:25;98128.28;;;17.67;84.88
8581;BME280;4328;48.622;9.230;2022-10-16T08:07:51;98133.44;;;17.75;84.52
8581;BME280;4328;48.622;9.230;2022-10-16T08:10:19;98129.78;;;17.81;84.03
8581;BME280;4328;48.622;9.230;2022-10-16T08:12:45;98127.72;;;17.77;84.26
8581;BME280;4328;48.622;9.230;2022-10-16T08:15:12;98130.31;;;17.72;84.85
8581;BME280;4328;48.622;9.230;2022-10-16T08:17:40;98126.03;;;17.76;85.38
8581;BME280;4328;48.622;9.230;2022-10-16T08:20:07;98129.50;;;17.83;85.14
8581;BME280;4328;48.622;9.230;2022-10-16T08:22:34;98129.81;;;17.93;85.35
8581;BME280;4328;48.622;9.230;2022-10-16T08:25:00;98132.47;;;18.11;85.29
8581;BME280;4328;48.622;9.230;2022-10-16T08:27:30;98132.38;;;18.29;84.10
8581;BME280;4328;48.622;9.230;2022-10-16T08:29:56;98132.50;;;18.46;83.01
8581;BME280;4328;48.622;9.230;2022-10-16T08:32:23;98134.09;;;18.77;82.34
8581;BME280;4328;48.622;9.230;2022-10-16T08:34:51;98135.84;;;19.18;81.07
8581;BME280;4328;48.622;9.230;2022-10-16T08:37:17;98129.00;;;19.72;78.84
8581;BME280;4328;48.622;9.230;2022-10-16T08:39:43;98142.72;;;20.29;76.89
8581;BME280;4328;48.622;9.230;2022-10-16T08:42:16;98142.91;;;20.73;74.95
8581;BME280;4328;48.622;9.230;2022-10-16T08:45:06;98133.63;;;20.79;73.43
8581;BME280;4328;48.622;9.230;2022-10-16T08:47:41;98150.84;;;20.69;73.69
8581;BME280;4328;48.622;9.230;2022-10-16T08:50:11;98147.75;;;20.49;73.94
8581;BME280;4328;48.622;9.230;2022-10-16T08:52:39;98146.28;;;20.30;74.60
8581;BME280;4328;48.622;9.230;2022-10-16T08:55:06;98153.69;;;20.12;74.91
8581;BME280;4328;48.622;9.230;2022-10-16T08:57:41;98148.09;;;20.07;75.55
8581;BME280;4328;48.622;9.230;2022-10-16T09:00:12;98159.94;;;20.08;75.73
8581;BME280;4328;48.622;9.230;2022-10-16T09:02:40;98162.06;;;20.17;75.87
8581;BME280;4328;48.622;9.230;2022-10-16T09:08:06;98163.78;;;20.52;75.92
8581;BME280;4328;48.622;9.230;2022-10-16T09:10:38;98164.25;;;20.82;74.37
8581;BME280;4328;48.622;9.230;2022-10-16T09:13:10;98062.59;;;20.31;73.93
8581;BME280;4328;48.622;9.230;2022-10-16T09:15:42;98158.03;;;21.09;74.24
8581;BME280;4328;48.622;9.230;2022-10-16T09:18:12;98168.00;;;21.10;73.40
8581;BME280;4328;48.622;9.230;2022-10-16T09:20:43;98173.94;;;21.40;73.11
8581;BME280;4328;48.622;9.230;2022-10-16T09:23:16;98170.78;;;21.75;71.86
8581;BME280;4328;48.622;9.230;2022-10-16T09:25:44;98171.53;;;22.14;70.67
8581;BME280;4328;48.622;9.230;2022-10-16T09:28:10;98165.34;;;22.61;69.78
8581;BME280;4328;48.622;9.230;2022-10-16T09:30:37;98160.53;;;23.72;65.33
8581;BME280;4328;48.622;9.230;2022-10-16T09:33:04;98174.59;;;24.84;62.44
8581;BME280;4328;48.622;9.230;2022-10-16T09:35:32;98157.97;;;29.14;53.98
8581;BME280;4328;48.622;9.230;2022-10-16T09:37:59;98158.09;;;32.83;44.35
8581;BME280;4328;48.622;9.230;2022-10-16T09:40:29;98170.31;;;32.87;42.17
8581;BME280;4328;48.622;9.230;2022-10-16T09:43:01;98160.97;;;31.30;44.05
8581;BME280;4328;48.622;9.230;2022-10-16T09:45:28;98162.28;;;27.75;48.43
8581;BME280;4328;48.622;9.230;2022-10-16T09:47:54;98168.81;;;28.08;49.38
8581;BME280;4328;48.622;9.230;2022-10-16T09:50:22;98166.28;;;27.88;49.05
8581;BME280;4328;48.622;9.230;2022-10-16T09:52:50;98169.13;;;27.06;50.04
8581;BME280;4328;48.622;9.230;2022-10-16T09:55:17;98176.72;;;26.67;51.74
8581;BME280;4328;48.622;9.230;2022-10-16T09:57:51;98171.53;;;26.50;52.79
8581;BME280;4328;48.622;9.230;2022-10-16T10:00:18;98156.16;;;26.91;52.41
8581;BME280;4328;48.622;9.230;2022-10-16T10:02:45;98159.94;;;29.27;48.39
8581;BME280;4328;48.622;9.230;2022-10-16T10:05:18;98160.81;;;30.10;45.90
8581;BME280;4328;48.622;9.230;2022-10-16T10:07:52;98164.34;;;33.23;42.20
8581;BME280;4328;48.622;9.230;2022-10-16T10:10:20;98155.59;;;35.71;37.57
8581;BME280;4328;48.622;9.230;2022-10-16T10:12:48;98165.97;;;34.59;37.61
8581;BME280;4328;48.622;9.230;2022-10-16T10:15:16;98163.44;;;35.20;37.40
8581;BME280;4328;48.622;9.230;2022-10-16T10:17:45;98156.94;;;37.74;33.26
8581;BME280;4328;48.622;9.230;2022-10-16T10:20:15;98154.22;;;38.98;31.30
8581;BME280;4328;48.622;9.230;2022-10-16T10:22:47;98143.53;;;38.98;30.65
8581;BME280;4328;48.622;9.230;2022-10-16T10:25:15;-18596.78;;;40.24;100.00
8581;BME280;4328;48.622;9.230;2022-10-16T10:27:50;64081.09;;;-143.67;100.00
8581;BME280;4328;48.622;9.230;2022-10-16T10:30:22;64081.09;;;-143.67;100.00
8581;BME280;4328;48.622;9.230;2022-10-16T10:32:52;64081.09;;;-143.67;100.00
8581;BME280;4328;48.622;9.230;2022-10-16T10:35:22;64081.09;;;-143.67;100.00
8581;BME280;4328;48.622;9.230;2022-10-16T10:38:00;64081.09;;;-143.67;100.00
8581;BME280;4328;48.622;9.230;2022-10-16T10:40:32;64081.09;;;-143.67;100.00
8581;BME280;4328;48.622;9.230;2022-10-16T10:43:06;64081.09;;;-143.67;100.00
8581;BME280;4328;48.622;9.230;2022-10-16T10:45:41;64081.09;;;-143.67;100.00
8581;BME280;4328;48.622;9.230;2022-10-16T10:48:13;64081.09;;;-143.67;100.00
8581;BME280;4328;48.622;9.230;2022-10-16T10:50:45;64081.09;;;-143.67;100.00
8581;BME280;4328;48.622;9.230;2022-10-16T10:53:31;64081.09;;;-143.67;100.00
8581;BME280;4328;48.622;9.230;2022-10-16T10:56:06;64081.09;;;-143.67;100.00
8581;BME280;4328;48.622;9.230;2022-10-16T10:58:44;64081.09;;;-143.67;100.00
8581;BME280;4328;48.622;9.230;2022-10-16T11:01:15;64081.09;;;-143.67;100.00
8581;BME280;4328;48.622;9.230;2022-10-16T11:03:47;64081.09;;;-143.67;100.00
8581;BME280;4328;48.622;9.230;2022-10-16T11:06:21;64081.09;;;-143.67;100.00
8581;BME280;4328;48.622;9.230;2022-10-16T11:08:51;64081.09;;;-143.67;100.00
8581;BME280;4328;48.622;9.230;2022-10-16T11:11:20;64081.09;;;-143.67;100.00
8581;BME280;4328;48.622;9.230;2022-10-16T11:13:52;64081.09;;;-143.67;100.00
8581;BME280;4328;48.622;9.230;2022-10-16T11:16:23;64081.09;;;-143.67;100.00
8581;BME280;4328;48.622;9.230;2022-10-16T11:18:55;64081.09;;;-143.67;100.00
8581;BME280;4328;48.622;9.230;2022-10-16T11:21:24;64081.09;;;-143.67;100.00
8581;BME280;4328;48.622;9.230;2022-10-16T11:23:53;64081.09;;;-143.67;100.00
8581;BME280;4328;48.622;9.230;2022-10-16T11:26:25;64081.09;;;-143.67;100.00
8581;BME280;4328;48.622;9.230;2022-10-16T11:28:53;64081.09;;;-143.67;100.00
8581;BME280;4328;48.622;9.230;2022-10-16T11:31:24;64081.09;;;-143.67;100.00
8581;BME280;4328;48.622;9.230;2022-10-16T11:33:55;64081.09;;;-143.67;100.00
8581;BME280;4328;48.622;9.230;2022-10-16T11:36:25;64081.09;;;-143.67;100.00
8581;BME280;4328;48.622;9.230;2022-10-16T11:38:52;64081.09;;;-143.67;100.00
8581;BME280;4328;48.622;9.230;2022-10-16T11:41:23;64081.09;;;-143.67;100.00
8581;BME280;4328;48.622;9.230;2022-10-16T11:43:52;64081.09;;;-143.67;100.00
8581;BME280;4328;48.622;9.230;2022-10-16T11:46:24;64081.09;;;-143.67;100.00
8581;BME280;4328;48.622;9.230;2022-10-16T11:48:54;64081.09;;;-143.67;100.00
8581;BME280;4328;48.622;9.230;2022-10-16T11:51:24;64081.09;;;-143.67;100.00
8581;BME280;4328;48.622;9.230;2022-10-16T11:53:53;64081.09;;;-143.67;100.00
8581;BME280;4328;48.622;9.230;2022-10-16T11:56:23;64081.09;;;-143.67;100.00
8581;BME280;4328;48.622;9.230;2022-10-16T11:58:51;64081.09;;;-143.67;100.00
8581;BME280;4328;48.622;9.230;2022-10-16T12:01:22;64081.09;;;-143.67;100.00
8581;BME280;4328;48.622;9.230;2022-10-16T12:03:56;64081.09;;;-143.67;100.00
8581;BME280;4328;48.622;9.230;2022-10-16T12:06:28;64081.09;;;-143.67;100.00
8581;BME280;4328;48.622;9.230;2022-10-16T12:08:57;64081.09;;;-143.67;100.00
8581;BME280;4328;48.622;9.230;2022-10-16T12:11:31;64081.09;;;-143.67;100.00
8581;BME280;4328;48.622;9.230;2022-10-16T12:14:05;64081.09;;;-143.67;100.00
8581;BME280;4328;48.622;9.230;2022-10-16T12:16:33;64081.09;;;-143.67;100.00
8581;BME280;4328;48.622;9.230;2022-10-16T12:19:09;64081.09;;;-143.67;100.00
8581;BME280;4328;48.622;9.230;2022-10-16T12:21:36;64081.09;;;-143.67;100.00
8581;BME280;4328;48.622;9.230;2022-10-16T12:24:03;64081.09;;;-143.67;100.00
8581;BME280;4328;48.622;9.230;2022-10-16T12:26:31;64081.09;;;-143.67;100.00
8581;BME280;4328;48.622;9.230;2022-10-16T12:29:09;64081.09;;;-143.67;100.00
8581;BME280;4328;48.622;9.230;2022-10-16T12:31:38;64081.09;;;-143.67;100.00
8581;BME280;4328;48.622;9.230;2022-10-16T12:34:19;64081.09;;;-143.67;100.00
8581;BME280;4328;48.622;9.230;2022-10-16T12:36:48;64081.09;;;-143.67;100.00
8581;BME280;4328;48.622;9.230;2022-10-16T12:39:20;64081.09;;;-143.67;100.00
8581;BME280;4328;48.622;9.230;2022-10-16T12:42:21;98096.06;;;39.50;27.94
8581;BME280;4328;48.622;9.230;2022-10-16T12:44:48;98086.41;;;39.54;28.15
8581;BME280;4328;48.622;9.230;2022-10-16T12:47:21;98090.00;;;39.74;28.62
8581;BME280;4328;48.622;9.230;2022-10-16T12:49:48;98077.38;;;40.81;28.01
8581;BME280;4328;48.622;9.230;2022-10-16T12:52:28;98078.97;;;42.03;26.88
8581;BME280;4328;48.622;9.230;2022-10-16T12:54:57;98077.34;;;42.71;25.58
8581;BME280;4328;48.622;9.230;2022-10-16T12:57:33;98085.56;;;41.60;26.15
8581;BME280;4328;48.622;9.230;2022-10-16T13:00:04;98077.28;;;40.73;27.50
8581;BME280;4328;48.622;9.230;2022-10-16T13:02:44;98080.41;;;39.36;28.55
8581;BME280;4328;48.622;9.230;2022-10-16T13:05:21;98077.34;;;38.84;28.99
8581;BME280;4328;48.622;9.230;2022-10-16T13:07:53;98077.06;;;38.89;29.64
8581;BME280;4328;48.622;9.230;2022-10-16T13:10:24;98081.78;;;38.81;28.62
8581;BME280;4328;48.622;9.230;2022-10-16T13:15:43;98084.22;;;40.46;27.43
8581;BME280;4328;48.622;9.230;2022-10-16T13:18:16;98083.59;;;40.30;27.38
8581;BME280;4328;48.622;9.230;2022-10-16T13:20:53;98090.00;;;40.27;27.43
8581;BME280;4328;48.622;9.230;2022-10-16T13:23:23;98098.53;;;38.90;27.80
8581;BME280;4328;48.622;9.230;2022-10-16T13:25:56;98103.25;;;37.02;29.87
8581;BME280;4328;48.622;9.230;2022-10-16T13:28:27;98102.13;;;35.05;32.63